Wetterdaten: Januar 2017
Datum Temp Feuchte Luftdruck Regen Wind Richtung Sonnenschein UV Solar Windben
01.01.2017 -1,7 C 88 % 1017,9 hPa 0,8 l/m 0,9 km/h S 2,92 h 0,6 UV-I 90 W/m 4,4 km/h
02.01.2017 0,1 C 97 % 1021,2 hPa 3,0 l/m 1,5 km/h W 0,00 h 0,0 UV-I 11 W/m 9,6 km/h
03.01.2017 1,1 C 97 % 1017,8 hPa 5,6 l/m 13,4 km/h W-SW 0,00 h 0,0 UV-I 28 W/m 33,4 km/h
04.01.2017 1,6 C 95 % 1011,7 hPa 6,6 l/m 19,3 km/h N-NW 0,08 h 0,5 UV-I 35 W/m 34,6 km/h
05.01.2017 -4,3 C 82 % 1032,5 hPa 0,0 l/m 0,5 km/h N-NW 2,25 h 0,6 UV-I 94 W/m 5,2 km/h
06.01.2017 -8,4 C 86 % 1039,8 hPa 0,0 l/m 1,3 km/h S 4,42 h 0,6 UV-I 121 W/m 4,4 km/h
07.01.2017 -3,0 C 92 % 1029,9 hPa 0,6 l/m 0,4 km/h S 0,00 h 0,5 UV-I 43 W/m 3,2 km/h
08.01.2017 0,2 C 98 % 1030,2 hPa 0,8 l/m 0,0 km/h N 0,00 h 0,0 UV-I 25 W/m 0,0 km/h
09.01.2017 0,0 C 95 % 1020,6 hPa 0,2 l/m 7,1 km/h S-SO 0,58 h 0,5 UV-I 57 W/m 9,6 km/h
10.01.2017 0,2 C 96 % 1010,6 hPa 3,6 l/m 5,8 km/h S-SO 0,00 h 0,0 UV-I 33 W/m 9,3 km/h
11.01.2017 2,3 C 95 % 1004,1 hPa 4,8 l/m 8,7 km/h S 0,17 h 0,0 UV-I 33 W/m 22,5 km/h
12.01.2017 2,4 C 91 % 1000,4 hPa 4,0 l/m 6,9 km/h SW 0,08 h 0,5 UV-I 47 W/m 23,7 km/h
13.01.2017 0,1 C 95 % 995,6 hPa 8,2 l/m 14,3 km/h S-SW 0,00 h 0,0 UV-I 25 W/m 29,3 km/h
14.01.2017 0,2 C 95 % 1009,4 hPa 5,2 l/m 9,6 km/h NW 0,08 h 0,5 UV-I 54 W/m 20,9 km/h
15.01.2017 -0,9 C 96 % 1019,5 hPa 0,4 l/m 2,5 km/h NW 0,00 h 0,0 UV-I 22 W/m 8,9 km/h
16.01.2017 -3,7 C 92 % 1028,3 hPa 0,0 l/m 0,2 km/h N-NO 3,17 h 0,6 UV-I 133 W/m 0,8 km/h
17.01.2017 -4,1 C 94 % 1037,7 hPa 0,0 l/m 0,0 km/h N-NO 0,08 h 0,6 UV-I 75 W/m 0,0 km/h
18.01.2017 -4,5 C 91 % 1039,4 hPa 0,0 l/m 4,2 km/h SO 0,42 h 0,6 UV-I 89 W/m 12,9 km/h
19.01.2017 -4,4 C 85 % 1037,9 hPa 0,0 l/m 0,6 km/h SO 5,33 h 0,7 UV-I 153 W/m 2,0 km/h
20.01.2017 -1,6 C 77 % 1034,8 hPa 0,0 l/m 0,0 km/h O-SO 3,50 h 0,7 UV-I 121 W/m 0,0 km/h
21.01.2017 -1,0 C 80 % 1030,1 hPa 0,0 l/m 3,3 km/h SO 6,25 h 0,8 UV-I 162 W/m 8,4 km/h
22.01.2017 -4,6 C 85 % 1026,1 hPa 0,2 l/m 0,0 km/h S-SO 5,83 h 0,8 UV-I 162 W/m 0,0 km/h
23.01.2017 -4,6 C 95 % 1026,6 hPa 0,0 l/m 0,0 km/h N-NW 0,00 h 0,5 UV-I 51 W/m 0,0 km/h
24.01.2017 -1,8 C 96 % 1029,8 hPa 0,0 l/m 0,0 km/h N 0,00 h 0,5 UV-I 68 W/m 0,0 km/h
25.01.2017 -1,6 C 89 % 1030,7 hPa 0,0 l/m 9,0 km/h SO 0,17 h 0,7 UV-I 80 W/m 20,9 km/h
26.01.2017 -2,0 C 83 % 1024,9 hPa 0,0 l/m 10,9 km/h S-SO 6,17 h 0,8 UV-I 168 W/m 16,9 km/h
27.01.2017 -1,3 C 80 % 1021,0 hPa 0,0 l/m 4,9 km/h S-SO 5,83 h 0,8 UV-I 161 W/m 7,3 km/h
28.01.2017 3,2 C 77 % 1017,9 hPa 0,0 l/m 0,9 km/h S 6,25 h 0,9 UV-I 172 W/m 4,8 km/h
29.01.2017 2,0 C 90 % 1019,3 hPa 0,4 l/m 3,2 km/h S 2,42 h 0,7 UV-I 107 W/m 7,7 km/h
30.01.2017 2,4 C 95 % 1009,8 hPa 9,8 l/m 9,5 km/h S-SO 0,00 h 0,5 UV-I 46 W/m 21,3 km/h
31.01.2017 0,4 C 98 % 1017,0 hPa 0,8 l/m 0,0 km/h NW 0,00 h 0,6 UV-I 42 W/m 0,0 km/h
Min-Datum 06.01.17 17.01.17 13.01.17 17 Tage 01.01.17 - - - - 01.01.17
Min-Zeit 07:55 04:05 04:05 - 00:00 - - - - 00:00
Minimum -11,6 C 0 % 979,3 hPa - 0,0 km/h - - - - 0,0 km/h
Max-Datum 28.01.17 03.01.17 06.01.17 30.01.17 27.01.17 - 21.01.17 29.01.17 16.01.17 03.01.17
Max-Zeit 13:10 18:10 09:20 15:00 05:55 - 15:40 11:45 11:20 19:55
Maximum 9,6 C 100 % 1041,8 hPa 9,8 l/m 32,8 km/h
S-SO
- 6,17 h 1,2 UV-I 471 W/m 56,3 km/h
W
Durchschnitt -1,2 C 90 % 1022,3 hPa #55,0 l/m 4,5 km/h S-SO #56:00 h 0,6 UV-I 81 W/m 10,4 km/h

Durchschnitt Minimum Temp.-3,8 C
Durchschnitt Maximum Temp.1,4 C